Terminal Aerodrome Forecast
Issued by NWS Atlanta, GA

Home | Current Version | Previous Version | Text Only | Print | Product List | Glossary On
Versions: 1 2 3 4 5 6 7 8 9 10 11 12 13 14 15 16 17 18 19 20 21 22 23 24 25 26 27 28 29 30 31 32 33 34 35 36 37 38
000
FTUS42 KFFC 240520
TAFATL
TAF
KATL 240520Z 2406/2512 VRB03KT P6SM SKC
     FM240800 00000KT P6SM SCT012
     FM241000 00000KT 4SM BR BKN008
     FM241400 10003KT P6SM BKN015
     FM241600 10006KT P6SM BKN025
     FM241900 12007KT P6SM SCT035
     FM250900 11005KT 5SM BR BKN015=

USA.gov is the U.S. government's official web portal to all federal, state and local government web resources and services.